MSC Jemima — 3EAE3 — position and weather

sailwx.info

Track history (hours):
 
Tides and Currents Weather Stations Pressure Air Temp Water Temp Dewpoint Dewpoint Depression Visibility Wind Speed Wind Dir Waves Ship Positions

MSC Jemima

Last reported at 2018-Jul-11 23:54 UTC. Time now 2018-Jul-15 20:54 UTC.
Position N 05°05' E 000°14'.

Length 202 m; draft 8 m.

Type: Ship (hazmat cat A). MMSI: 352138000.

Date/timePositionNaut miles runAvg speedWind from/ knotsBaromVisibWave heightAir tempDewpointWater temp
2018-Jul-11 23:54N 05°05' E 000°14'1014.0
2018-Jul-11 23:12N 05°00' E 000°06'  
2018-Jul-04 21:51N 06°08' E 001°17'17 0.3
2018-Jul-02 20:29N 06°04' E 001°33'2 1.6
2018-Jul-02 19:22N 06°03' E 001°32'1 1.7
2018-Jul-02 18:55N 06°02' E 001°31'1 1.8
2018-Jul-02 18:30N 06°02' E 001°31'1 1.8
2018-Jul-02 18:00N 06°01' E 001°30'1 1.7
2018-Jul-02 17:30N 06°00' E 001°29'1 1.7
2018-Jul-02 17:01N 05°60' E 001°29'1 1.7
2018-Jul-02 16:30N 05°59' E 001°28'1 1.7
2018-Jul-02 15:59N 05°59' E 001°27'1 1.7
2018-Jul-02 15:31N 05°58' E 001°27'1 1.7
2018-Jul-02 14:52N 05°57' E 001°26'1 1.5
2018-Jul-02 14:30N 05°57' E 001°25'3 0.3
2018-Jul-02 03:01N 05°54' E 001°27'0 1.5
2018-Jul-02 02:59N 05°54' E 001°27'  
Track history (hours):
 
Tides and Currents Weather Stations Pressure Air Temp Water Temp Dewpoint Dewpoint Depression Visibility Wind Speed Wind Dir Waves Ship Positions

MSC Jemima

Last reported at 2018-Jul-11 23:54 UTC. Time now 2018-Jul-15 20:54 UTC.
Position N 05°05' E 000°14'.

Length 202 m; draft 8 m.

Type: Ship (hazmat cat A). MMSI: 352138000.

Date/timePositionNaut miles runAvg speedWind from/ knotsBaromVisibWave heightAir tempDewpointWater temp
2018-Jul-11 23:54N 05°05' E 000°14'1014.0
2018-Jul-11 23:12N 05°00' E 000°06'  
2018-Jul-04 21:51N 06°08' E 001°17'17 0.3
2018-Jul-02 20:29N 06°04' E 001°33'2 1.6
2018-Jul-02 19:22N 06°03' E 001°32'1 1.7
2018-Jul-02 18:55N 06°02' E 001°31'1 1.8
2018-Jul-02 18:30N 06°02' E 001°31'1 1.8
2018-Jul-02 18:00N 06°01' E 001°30'1 1.7
2018-Jul-02 17:30N 06°00' E 001°29'1 1.7
2018-Jul-02 17:01N 05°60' E 001°29'1 1.7
2018-Jul-02 16:30N 05°59' E 001°28'1 1.7
2018-Jul-02 15:59N 05°59' E 001°27'1 1.7
2018-Jul-02 15:31N 05°58' E 001°27'1 1.7
2018-Jul-02 14:52N 05°57' E 001°26'1 1.5
2018-Jul-02 14:30N 05°57' E 001°25'3 0.3
2018-Jul-02 03:01N 05°54' E 001°27'0 1.5
2018-Jul-02 02:59N 05°54' E 001°27'  

Dump ship's entire track history